Time;durP1;ratioP1;P1;durP2;ratioP2;P2;SDS_P1;SDS_P2;PMS_P1;PMS_P2;Temp;Humidity;BMP_temperature;BMP_pressure;BME280_temperature;BME280_humidity;BME280_pressure;Samples;Min_cycle;Max_cycle;Signal;HPM_P1;HPM_P2
2021/08/14 00:01:01;;;;;;;11.53;3.77;;;;;;;18.65;70.31;102145.63;2617097;54;20155;-79
2021/08/14 00:03:27;;;;;;;7.07;3.40;;;;;;;18.61;70.65;102144.72;2617380;54;20751;-78
2021/08/14 00:05:52;;;;;;;7.77;3.40;;;;;;;18.29;71.82;102146.13;2617849;39;20628;-77
2021/08/14 00:08:17;;;;;;;13.50;4.50;;;;;;;18.18;72.03;102137.41;2617208;54;20170;-78
2021/08/14 00:10:42;;;;;;;5.53;3.10;;;;;;;18.06;72.24;102139.03;2617930;39;20570;-78
2021/08/14 00:13:08;;;;;;;8.97;3.90;;;;;;;17.91;72.60;102137.13;2616755;47;20193;-78
2021/08/14 00:15:34;;;;;;;14.67;4.33;;;;;;;17.85;72.79;102143.97;2617324;54;20156;-76
2021/08/14 00:17:59;;;;;;;9.57;3.80;;;;;;;17.88;72.78;102144.91;2616550;54;20167;-76
2021/08/14 00:20:25;;;;;;;8.73;3.43;;;;;;;17.81;72.93;102139.59;2617303;54;20171;-78
2021/08/14 00:22:50;;;;;;;7.30;2.90;;;;;;;17.66;72.70;102140.31;2617449;54;20131;-78
2021/08/14 00:25:15;;;;;;;6.77;3.30;;;;;;;17.55;73.20;102141.91;2618053;39;20526;-78
2021/08/14 00:27:40;;;;;;;10.37;4.30;;;;;;;17.82;73.03;102141.38;2617495;54;20143;-77
2021/08/14 00:30:06;;;;;;;10.73;4.67;;;;;;;17.97;72.01;102139.78;2617301;47;20147;-76
2021/08/14 00:32:32;;;;;;;8.70;3.93;;;;;;;17.91;72.32;102147.50;2617647;39;20836;-76
2021/08/14 00:34:57;;;;;;;11.80;3.87;;;;;;;18.03;71.54;102145.03;2617293;54;20917;-77
2021/08/14 00:37:22;;;;;;;10.80;4.63;;;;;;;18.01;71.21;102136.38;2617476;39;20545;-76
2021/08/14 00:39:48;;;;;;;10.87;4.60;;;;;;;17.64;72.38;102138.56;2617622;39;20616;-76
2021/08/14 00:42:13;;;;;;;9.77;4.37;;;;;;;17.43;73.02;102141.78;2617098;54;20142;-78
2021/08/14 00:44:38;;;;;;;8.70;4.63;;;;;;;17.71;71.78;102141.25;2617103;54;20203;-76
2021/08/14 00:47:05;;;;;;;8.03;3.93;;;;;;;17.45;72.21;102141.81;2617881;54;20155;-78
2021/08/14 00:49:30;;;;;;;8.70;4.27;;;;;;;17.53;72.00;102133.25;2618225;54;20119;-78
2021/08/14 00:51:56;;;;;;;6.57;3.50;;;;;;;17.39;72.11;102134.81;2617889;54;20190;-77
2021/08/14 00:54:21;;;;;;;8.40;3.90;;;;;;;17.10;72.94;102143.91;2617483;54;20135;-77
2021/08/14 00:56:47;;;;;;;9.87;4.23;;;;;;;17.28;72.22;102138.09;2618061;54;20151;-78
2021/08/14 00:59:12;;;;;;;6.67;4.20;;;;;;;17.09;72.66;102136.94;2617662;54;20119;-76
2021/08/14 01:01:38;;;;;;;9.37;3.70;;;;;;;17.15;72.39;102128.41;2617996;31;20652;-76
2021/08/14 01:04:03;;;;;;;8.83;3.70;;;;;;;16.99;72.60;102132.50;2618096;54;20275;-76
2021/08/14 01:06:29;;;;;;;11.07;4.20;;;;;;;17.22;72.50;102140.59;2617799;54;20146;-76
2021/08/14 01:08:55;;;;;;;10.77;4.90;;;;;;;17.24;72.04;102123.34;2617492;54;20167;-77
2021/08/14 01:11:21;;;;;;;5.10;2.87;;;;;;;17.00;72.30;102128.22;2617069;54;20155;-77
2021/08/14 01:13:47;;;;;;;9.47;4.23;;;;;;;17.28;71.54;102126.03;2616943;47;20151;-77
2021/08/14 01:16:13;;;;;;;9.00;4.10;;;;;;;17.18;71.79;102131.91;2617643;54;20652;-78
2021/08/14 01:18:40;;;;;;;9.30;4.43;;;;;;;17.02;72.21;102134.25;2617579;54;20159;-78
2021/08/14 01:21:06;;;;;;;9.40;3.80;;;;;;;16.83;72.81;102127.97;2617320;54;20135;-78
2021/08/14 01:23:32;;;;;;;9.33;4.07;;;;;;;17.09;72.46;102125.75;2617229;54;20143;-77
2021/08/14 01:26:16;;;;;;;10.30;4.53;;;;;;;17.20;71.80;102126.75;2617508;54;20128;-78
2021/08/14 01:28:43;;;;;;;6.07;3.80;;;;;;;17.01;72.40;102119.59;2617262;54;20175;-77
2021/08/14 01:31:11;;;;;;;7.43;3.87;;;;;;;16.83;72.73;102122.81;2616945;54;20155;-76
2021/08/14 01:33:38;;;;;;;5.87;3.20;;;;;;;16.85;73.07;102128.00;2617726;39;20542;-78
2021/08/14 01:36:08;;;;;;;8.40;4.10;;;;;;;16.60;73.56;102123.28;2617141;54;20108;-78
2021/08/14 01:38:34;;;;;;;11.73;4.50;;;;;;;16.48;73.96;102116.22;2617020;54;20175;-77
2021/08/14 01:40:59;;;;;;;6.67;3.47;;;;;;;16.39;74.07;102115.19;2617222;39;20526;-78
2021/08/14 01:43:25;;;;;;;6.93;3.63;;;;;;;16.29;74.40;102114.16;2616980;54;20664;-79
2021/08/14 01:45:50;;;;;;;8.30;4.00;;;;;;;16.31;74.71;102119.34;2617291;54;20135;-77
2021/08/14 01:48:16;;;;;;;6.70;3.60;;;;;;;16.22;74.83;102114.91;2617300;46;20178;-76
2021/08/14 01:50:41;;;;;;;7.63;3.80;;;;;;;16.20;74.45;102110.53;2616398;54;20148;-78
2021/08/14 01:53:07;;;;;;;7.13;3.40;;;;;;;16.29;74.59;102110.66;2617305;54;20669;-76
2021/08/14 01:55:32;;;;;;;5.63;3.70;;;;;;;16.30;74.74;102102.09;2617760;54;20135;-78
2021/08/14 01:57:57;;;;;;;7.30;3.43;;;;;;;16.33;74.62;102107.31;2616418;54;20155;-78
2021/08/14 02:00:23;;;;;;;6.63;3.27;;;;;;;16.38;74.58;102103.94;2617096;54;20132;-77
2021/08/14 02:02:48;;;;;;;10.43;4.13;;;;;;;16.70;73.10;102100.19;2616695;54;20135;-76
2021/08/14 02:05:14;;;;;;;8.20;4.10;;;;;;;16.82;72.87;102099.47;2616534;54;20127;-77
2021/08/14 02:07:39;;;;;;;7.93;3.37;;;;;;;16.71;72.70;102096.75;2616873;54;20163;-77
2021/08/14 02:10:05;;;;;;;8.47;4.27;;;;;;;16.54;73.62;102102.50;2620008;54;20124;-79
2021/08/14 02:12:30;;;;;;;9.47;3.67;;;;;;;16.41;73.87;102100.56;2626377;54;20183;-78
2021/08/14 02:14:56;;;;;;;8.73;3.90;;;;;;;16.32;74.13;102110.75;2626256;47;20136;-78
2021/08/14 02:17:21;;;;;;;5.20;3.20;;;;;;;16.21;74.74;102112.28;2618049;39;20375;-77
2021/08/14 02:19:46;;;;;;;6.03;2.70;;;;;;;16.11;74.91;102107.81;2616750;54;20139;-77
2021/08/14 02:22:11;;;;;;;4.97;3.30;;;;;;;16.14;74.94;102102.66;2616670;47;20139;-77
2021/08/14 02:24:37;;;;;;;5.30;3.10;;;;;;;16.22;74.88;102114.91;2616661;54;20148;-77
2021/08/14 02:27:03;;;;;;;6.07;3.23;;;;;;;16.26;74.70;102106.31;2616580;54;20721;-77
2021/08/14 02:29:30;;;;;;;4.73;2.97;;;;;;;16.23;74.57;102110.59;2616448;54;20758;-77
2021/08/14 02:31:55;;;;;;;5.50;3.00;;;;;;;16.13;74.86;102106.09;2616591;54;20172;-78
2021/08/14 02:34:20;;;;;;;5.33;2.70;;;;;;;16.07;74.87;102111.19;2616593;47;20159;-77
2021/08/14 02:36:46;;;;;;;6.80;3.47;;;;;;;16.23;74.65;102098.53;2616615;54;20158;-76
2021/08/14 02:39:11;;;;;;;8.13;3.43;;;;;;;16.12;74.68;102102.63;2616512;47;20207;-77
2021/08/14 02:41:36;;;;;;;6.50;3.40;;;;;;;16.16;74.73;102091.50;2616768;54;20131;-76
2021/08/14 02:44:01;;;;;;;8.10;3.57;;;;;;;16.09;74.37;102086.22;2616505;54;20143;-79
2021/08/14 02:46:27;;;;;;;7.03;3.07;;;;;;;15.95;75.07;102086.00;2616641;54;20163;-77
2021/08/14 02:48:52;;;;;;;6.50;3.20;;;;;;;16.05;75.08;102087.00;2616728;54;20190;-77
2021/08/14 02:51:17;;;;;;;6.33;3.30;;;;;;;15.94;74.69;102085.97;2616710;54;20159;-78
2021/08/14 02:53:42;;;;;;;9.03;4.30;;;;;;;16.24;74.06;102087.34;2616785;54;20147;-78
2021/08/14 02:56:08;;;;;;;8.33;3.87;;;;;;;16.18;74.05;102092.44;2617082;39;20537;-77
2021/08/14 02:58:33;;;;;;;8.33;3.77;;;;;;;16.09;74.20;102081.94;2616733;54;20732;-78
2021/08/14 03:00:59;;;;;;;5.97;3.13;;;;;;;15.96;74.91;102072.22;2617431;39;20529;-78
2021/08/14 03:03:24;;;;;;;4.63;3.10;;;;;;;15.90;75.22;102068.66;2616424;54;20139;-78
2021/08/14 03:05:49;;;;;;;7.73;3.63;;;;;;;16.17;73.92;102074.31;2616704;54;20123;-76
2021/08/14 03:08:14;;;;;;;7.47;4.03;;;;;;;16.28;73.77;102080.50;2616437;54;20271;-78
2021/08/14 03:10:41;;;;;;;7.83;4.23;;;;;;;16.15;73.94;102070.81;2616260;54;20123;-78
2021/08/14 03:13:07;;;;;;;5.73;3.30;;;;;;;15.99;74.78;102081.75;2616326;54;20123;-76
2021/08/14 03:15:32;;;;;;;8.17;3.80;;;;;;;16.02;74.53;102076.63;2617211;39;20560;-78
2021/08/14 03:17:58;;;;;;;7.60;3.70;;;;;;;16.28;73.43;102075.34;2617402;54;20274;-77
2021/08/14 03:20:23;;;;;;;8.50;3.30;;;;;;;15.98;73.92;102078.28;2617320;54;20227;-77
2021/08/14 03:22:48;;;;;;;9.50;4.37;;;;;;;16.11;73.68;102077.66;2617884;39;20549;-77
2021/08/14 03:25:13;;;;;;;5.93;2.97;;;;;;;15.84;74.63;102081.47;2617639;54;20119;-79
2021/08/14 03:27:39;;;;;;;10.47;3.77;;;;;;;15.67;75.37;102086.34;2618011;46;20173;-77
2021/08/14 03:30:05;;;;;;;5.87;3.50;;;;;;;15.76;75.11;102076.19;2618219;31;20661;-77
2021/08/14 03:32:30;;;;;;;5.63;3.10;;;;;;;15.64;75.57;102082.81;2617496;54;20178;-77
2021/08/14 03:34:55;;;;;;;7.53;3.73;;;;;;;15.57;75.79;102084.41;2617415;54;20139;-78
2021/08/14 03:37:20;;;;;;;10.50;4.23;;;;;;;15.49;76.38;102082.53;2617180;54;20157;-77
2021/08/14 03:39:46;;;;;;;6.53;3.03;;;;;;;15.52;76.10;102078.28;2617216;54;20148;-77
2021/08/14 03:42:11;;;;;;;6.47;3.30;;;;;;;15.65;75.61;102082.00;2616931;46;20151;-78
2021/08/14 03:44:36;;;;;;;5.33;2.83;;;;;;;15.64;75.67;102075.06;2617288;54;20151;-78
2021/08/14 03:47:02;;;;;;;8.93;3.77;;;;;;;15.68;75.65;102077.75;2618376;31;20566;-78
2021/08/14 03:49:27;;;;;;;8.37;3.10;;;;;;;15.71;75.35;102076.94;2617047;54;20162;-78
2021/08/14 03:51:52;;;;;;;7.57;3.17;;;;;;;15.67;75.64;102090.63;2617524;54;20262;-78
2021/08/14 03:54:17;;;;;;;5.83;2.80;;;;;;;15.67;75.60;102083.75;2617562;47;20135;-76
2021/08/14 03:56:43;;;;;;;8.47;3.73;;;;;;;15.77;75.63;102088.25;2616768;54;20140;-77
2021/08/14 03:59:08;;;;;;;6.03;3.60;;;;;;;15.92;75.14;102070.44;2617550;47;20622;-76
2021/08/14 04:01:33;;;;;;;7.30;4.00;;;;;;;16.24;74.00;102074.44;2617192;54;20195;-76
2021/08/14 04:03:58;;;;;;;9.00;3.97;;;;;;;16.16;73.85;102083.75;2617619;47;20139;-77
2021/08/14 04:06:24;;;;;;;6.63;3.80;;;;;;;16.18;74.12;102087.25;2617533;47;20162;-78
2021/08/14 04:08:49;;;;;;;8.27;4.23;;;;;;;16.21;73.73;102076.09;2617322;46;20227;-76
2021/08/14 04:11:15;;;;;;;6.10;3.60;;;;;;;16.29;73.64;102077.94;2617534;54;20147;-77
2021/08/14 04:13:40;;;;;;;9.77;4.23;;;;;;;16.55;72.52;102073.22;2617313;54;20116;-78
2021/08/14 04:16:05;;;;;;;7.80;4.20;;;;;;;16.28;73.20;102072.75;2617437;46;20151;-78
2021/08/14 04:18:30;;;;;;;8.83;4.30;;;;;;;16.13;73.88;102078.56;2616992;54;20194;-77
2021/08/14 04:20:56;;;;;;;7.43;3.47;;;;;;;16.12;74.19;102069.03;2617233;54;20155;-78
2021/08/14 04:23:22;;;;;;;7.80;4.43;;;;;;;16.15;74.17;102066.53;2617433;54;20154;-77
2021/08/14 04:25:48;;;;;;;7.30;3.83;;;;;;;16.05;74.17;102066.34;2617401;54;20131;-76
2021/08/14 04:28:13;;;;;;;5.43;3.37;;;;;;;15.86;74.99;102072.03;2616794;54;20151;-78
2021/08/14 04:30:38;;;;;;;5.97;3.53;;;;;;;15.90;74.90;102079.88;2617240;46;20152;-79
2021/08/14 04:33:04;;;;;;;5.47;3.47;;;;;;;15.84;75.47;102079.75;2617242;54;20250;-75
2021/08/14 04:35:29;;;;;;;7.30;3.60;;;;;;;15.82;75.20;102077.97;2617304;54;20210;-75
2021/08/14 04:37:54;;;;;;;5.63;3.20;;;;;;;15.70;75.79;102080.38;2617139;54;20175;-78
2021/08/14 04:40:19;;;;;;;8.40;4.43;;;;;;;15.89;75.42;102077.28;2617149;54;20147;-78
2021/08/14 04:42:45;;;;;;;8.47;4.20;;;;;;;16.24;74.13;102070.94;2616839;54;20176;-78
2021/08/14 04:45:11;;;;;;;8.27;4.07;;;;;;;16.19;74.34;102068.31;2616443;54;20710;-78
2021/08/14 04:47:37;;;;;;;8.87;4.27;;;;;;;16.38;73.67;102061.69;2617204;54;20799;-78
2021/08/14 04:50:06;;;;;;;9.80;4.50;;;;;;;16.37;73.57;102071.19;2616739;54;20189;-78
2021/08/14 04:52:31;;;;;;;7.30;4.30;;;;;;;16.60;72.82;102059.50;2616979;54;20155;-78
2021/08/14 04:54:57;;;;;;;8.37;3.97;;;;;;;16.50;73.09;102064.53;2617177;54;20754;-78
2021/08/14 04:57:22;;;;;;;10.53;4.43;;;;;;;16.56;73.00;102068.06;2616858;54;20224;-77
2021/08/14 04:59:48;;;;;;;10.67;4.50;;;;;;;16.57;73.09;102071.53;2616660;39;20252;-78
2021/08/14 05:02:13;;;;;;;8.03;4.10;;;;;;;16.45;73.59;102067.06;2617155;54;20135;-76
2021/08/14 05:04:38;;;;;;;8.20;4.27;;;;;;;16.27;74.07;102076.19;2617074;47;20147;-76
2021/08/14 05:07:04;;;;;;;7.93;4.37;;;;;;;16.30;74.29;102073.66;2617296;47;20151;-77
2021/08/14 05:09:30;;;;;;;9.23;4.13;;;;;;;16.59;73.05;102073.28;2616886;54;20143;-77
2021/08/14 05:11:55;;;;;;;8.13;4.50;;;;;;;16.64;72.85;102065.59;2616841;54;20164;-76
2021/08/14 05:14:20;;;;;;;4.23;3.23;;;;;;;16.33;73.94;102079.75;2616903;47;20163;-78
2021/08/14 05:16:46;;;;;;;7.50;4.17;;;;;;;16.36;74.44;102077.22;2616281;54;20178;-77
2021/08/14 05:19:11;;;;;;;7.23;4.17;;;;;;;16.18;74.79;102081.22;2617333;39;20548;-77
2021/08/14 05:21:37;;;;;;;6.33;3.87;;;;;;;16.09;75.02;102078.47;2616518;54;20139;-77
2021/08/14 05:24:04;;;;;;;9.93;4.70;;;;;;;16.33;75.06;102079.75;2617104;54;20168;-78
2021/08/14 05:26:29;;;;;;;10.33;5.00;;;;;;;16.62;73.86;102075.91;2616776;54;20178;-77
2021/08/14 05:28:55;;;;;;;8.77;5.03;;;;;;;16.50;74.01;102082.63;2616866;54;20167;-77
2021/08/14 05:31:20;;;;;;;10.67;4.77;;;;;;;16.52;74.34;102070.56;2616859;54;20649;-78
2021/08/14 05:33:45;;;;;;;7.60;3.93;;;;;;;16.61;73.42;102074.19;2616905;54;20247;-76
2021/08/14 05:36:11;;;;;;;4.87;2.83;;;;;;;16.47;74.75;102073.09;2616691;54;20195;-78
2021/08/14 05:38:36;;;;;;;7.03;4.10;;;;;;;16.44;75.08;102069.59;2616512;54;20187;-78
2021/08/14 05:41:03;;;;;;;6.27;3.80;;;;;;;16.50;75.00;102078.34;2616408;54;20178;-78
2021/08/14 05:43:28;;;;;;;6.03;4.00;;;;;;;16.52;75.13;102071.44;2617324;39;20597;-77
2021/08/14 05:45:54;;;;;;;8.07;4.07;;;;;;;16.67;75.01;102065.66;2616694;54;20131;-75
2021/08/14 05:48:19;;;;;;;6.97;3.47;;;;;;;16.63;75.18;102069.03;2616747;54;20179;-76
2021/08/14 05:50:46;;;;;;;11.37;4.40;;;;;;;16.69;74.88;102061.34;2616183;54;20307;-78
2021/08/14 05:53:11;;;;;;;11.07;4.40;;;;;;;16.90;73.55;102059.91;2616501;54;20179;-73
2021/08/14 05:55:36;;;;;;;7.57;4.20;;;;;;;16.88;74.10;102064.22;2616709;39;20581;-77
2021/08/14 05:58:02;;;;;;;11.13;4.13;;;;;;;17.01;74.41;102063.53;2616651;46;20147;-77
2021/08/14 06:00:27;;;;;;;6.70;3.97;;;;;;;17.17;73.63;102064.59;2615957;47;20163;-75
2021/08/14 06:02:53;;;;;;;10.90;4.00;;;;;;;17.20;73.47;102072.38;2616056;47;20164;-76
2021/08/14 06:05:18;;;;;;;10.47;4.77;;;;;;;17.29;73.35;102069.91;2616895;54;20235;-78
2021/08/14 06:07:46;;;;;;;11.90;4.60;;;;;;;17.44;72.33;102062.34;2616667;54;20672;-77
2021/08/14 06:10:12;;;;;;;11.13;4.43;;;;;;;17.58;72.25;102066.81;2622073;36;20211;-77
2021/08/14 06:12:37;;;;;;;11.67;4.00;;;;;;;17.56;72.77;102062.47;2616888;54;20770;-77
2021/08/14 06:15:03;;;;;;;7.87;4.33;;;;;;;17.41;72.92;102055.41;2616762;54;20215;-76
2021/08/14 06:17:28;;;;;;;8.67;4.50;;;;;;;17.61;73.04;102053.03;2616176;47;20163;-77
2021/08/14 06:19:53;;;;;;;8.80;3.90;;;;;;;17.53;72.71;102049.47;2616615;54;20124;-78
2021/08/14 06:22:18;;;;;;;10.73;4.10;;;;;;;17.48;73.58;102061.53;2617126;39;20529;-76
2021/08/14 06:24:44;;;;;;;9.10;4.23;;;;;;;17.62;73.26;102057.34;2616829;54;20152;-77
2021/08/14 06:27:09;;;;;;;10.47;3.53;;;;;;;17.65;72.72;102052.22;2616704;47;20741;-78
2021/08/14 06:29:34;;;;;;;8.77;3.83;;;;;;;17.58;73.35;102053.00;2616782;54;20139;-76
2021/08/14 06:31:59;;;;;;;8.10;3.90;;;;;;;17.63;73.58;102052.19;2617144;54;20142;-77
2021/08/14 06:34:25;;;;;;;10.73;4.57;;;;;;;17.53;74.18;102049.47;2616786;54;20653;-77
2021/08/14 06:36:50;;;;;;;11.33;4.43;;;;;;;18.03;72.85;102040.47;2617341;54;20119;-78
2021/08/14 06:39:15;;;;;;;10.57;4.00;;;;;;;18.05;72.58;102038.78;2617794;54;20155;-80
2021/08/14 06:41:41;;;;;;;11.63;4.93;;;;;;;18.07;73.36;102040.50;2622005;54;20149;-77
2021/08/14 06:44:06;;;;;;;8.83;3.50;;;;;;;18.27;72.42;102033.75;2626280;54;20144;-78
2021/08/14 06:46:31;;;;;;;9.10;4.00;;;;;;;18.41;72.15;102039.94;2658674;36;20235;-80
2021/08/14 06:48:59;;;;;;;12.80;4.03;;;;;;;18.92;69.01;102048.00;2617469;47;20242;-77
2021/08/14 06:51:24;;;;;;;12.53;3.87;;;;;;;18.88;69.61;102045.41;2617417;54;20150;-78
2021/08/14 06:53:49;;;;;;;9.83;4.13;;;;;;;19.00;69.11;102042.84;2617645;54;20152;-78
2021/08/14 06:56:15;;;;;;;11.03;4.20;;;;;;;19.22;68.34;102039.47;2617799;54;20146;-79
2021/08/14 06:58:40;;;;;;;15.20;3.97;;;;;;;19.50;65.24;102029.22;2617377;54;20186;-77
2021/08/14 07:01:05;;;;;;;13.23;4.30;;;;;;;19.62;65.99;102030.97;2617537;46;20166;-78
2021/08/14 07:03:31;;;;;;;14.87;4.47;;;;;;;19.64;66.75;102044.81;2617340;54;20147;-78
2021/08/14 07:05:56;;;;;;;12.07;3.90;;;;;;;19.75;65.44;102030.09;2617845;54;20139;-77
2021/08/14 07:08:21;;;;;;;11.03;4.10;;;;;;;19.75;66.08;102024.88;2617858;54;20166;-79
2021/08/14 07:10:46;;;;;;;8.57;3.90;;;;;;;19.72;65.69;102024.91;2618620;54;20704;-79
2021/08/14 07:13:12;;;;;;;10.43;4.43;;;;;;;19.83;64.11;102021.44;2618244;54;20139;-79
2021/08/14 07:15:37;;;;;;;10.60;3.33;;;;;;;19.92;64.94;102025.78;2617682;47;20196;-78
2021/08/14 07:18:03;;;;;;;10.43;4.20;;;;;;;19.75;66.12;102023.16;2618250;54;20139;-79
2021/08/14 07:20:28;;;;;;;9.10;3.90;;;;;;;19.90;65.25;102024.91;2618188;54;20209;-79
2021/08/14 07:22:54;;;;;;;14.07;4.30;;;;;;;20.16;64.17;102013.66;2618108;54;20633;-79
2021/08/14 07:25:19;;;;;;;12.13;4.10;;;;;;;20.17;63.88;102017.16;2618070;54;20132;-77
2021/08/14 07:27:44;;;;;;;11.83;4.20;;;;;;;20.30;63.47;102024.03;2618044;47;20171;-79
2021/08/14 07:30:10;;;;;;;11.73;4.20;;;;;;;20.45;63.83;102013.63;2617831;54;20143;-79
2021/08/14 07:32:36;;;;;;;8.73;3.77;;;;;;;20.63;62.47;102019.66;2617548;54;20174;-79
2021/08/14 07:35:02;;;;;;;12.03;4.40;;;;;;;20.67;62.68;102023.09;2618339;39;20595;-78
2021/08/14 07:37:28;;;;;;;10.03;3.73;;;;;;;20.64;62.40;102021.38;2617608;39;20455;-78
2021/08/14 07:39:54;;;;;;;11.53;3.93;;;;;;;20.67;62.41;102015.28;2617792;54;20139;-79
2021/08/14 07:42:19;;;;;;;13.33;3.70;;;;;;;20.64;62.30;102018.75;2618129;54;20210;-79
2021/08/14 07:44:44;;;;;;;10.63;3.70;;;;;;;20.70;62.40;102017.91;2618027;54;20123;-78
2021/08/14 07:47:09;;;;;;;8.97;3.40;;;;;;;20.94;60.40;102012.63;2652529;36;20900;-77
2021/08/14 07:49:35;;;;;;;11.33;4.20;;;;;;;21.09;58.81;102008.22;2617602;54;20139;-77
2021/08/14 07:52:00;;;;;;;14.67;4.07;;;;;;;21.09;59.76;102010.81;2617537;54;20132;-78
2021/08/14 07:54:28;;;;;;;12.07;3.70;;;;;;;21.19;59.40;102006.44;2618117;46;20119;-78
2021/08/14 07:56:53;;;;;;;9.30;3.27;;;;;;;21.37;57.41;102004.59;2617517;54;20692;-78
2021/08/14 07:59:18;;;;;;;9.70;3.40;;;;;;;21.43;57.34;102004.53;2617819;54;20143;-77
2021/08/14 08:01:44;;;;;;;13.57;4.23;;;;;;;21.39;56.39;102008.06;2617553;54;20149;-77
2021/08/14 08:04:09;;;;;;;12.23;3.53;;;;;;;21.41;56.61;102001.09;2618095;47;20660;-78
2021/08/14 08:06:34;;;;;;;11.93;3.63;;;;;;;21.39;57.33;102000.25;2617247;54;20158;-78
2021/08/14 08:08:59;;;;;;;10.10;3.83;;;;;;;21.57;56.39;101997.50;2617696;46;20128;-78
2021/08/14 08:11:25;;;;;;;10.13;3.53;;;;;;;21.61;55.77;101999.19;2617906;54;20123;-79
2021/08/14 08:13:50;;;;;;;10.13;3.20;;;;;;;21.64;56.07;102006.13;2617638;54;20787;-78
2021/08/14 08:16:15;;;;;;;11.63;3.70;;;;;;;21.62;56.27;101990.53;2617966;54;20131;-77
2021/08/14 08:18:40;;;;;;;11.23;3.97;;;;;;;21.84;57.30;101999.06;2618327;46;20151;-78
2021/08/14 08:21:06;;;;;;;8.00;3.17;;;;;;;22.15;55.72;101992.69;2617575;54;20136;-78
2021/08/14 08:23:31;;;;;;;10.30;3.30;;;;;;;22.34;54.03;101994.25;2617893;54;20719;-78
2021/08/14 08:25:56;;;;;;;11.53;4.07;;;;;;;22.28;52.73;101996.91;2618221;54;20158;-79
2021/08/14 08:28:23;;;;;;;11.03;3.50;;;;;;;22.33;54.51;102002.09;2617953;46;20166;-78
2021/08/14 08:30:49;;;;;;;7.97;3.50;;;;;;;22.45;53.88;102000.25;2617903;39;20877;-77
2021/08/14 08:33:15;;;;;;;10.03;3.23;;;;;;;22.69;52.58;101988.69;2617961;54;20648;-76
2021/08/14 08:35:40;;;;;;;12.90;3.80;;;;;;;22.80;52.81;101987.69;2617348;54;20133;-74
2021/08/14 08:38:05;;;;;;;8.20;3.53;;;;;;;22.80;51.64;101972.00;2616711;54;20227;-77
2021/08/14 08:40:38;;;;;;;7.70;3.40;;;;;;;22.73;53.63;101980.78;2616969;47;20155;-75
2021/08/14 08:43:05;;;;;;;9.70;3.67;;;;;;;22.93;53.10;101978.78;2616893;54;20155;-78
2021/08/14 08:45:31;;;;;;;9.30;3.13;;;;;;;22.93;52.38;101978.78;2617337;54;20135;-78
2021/08/14 08:47:57;;;;;;;7.70;3.33;;;;;;;22.84;51.61;101971.06;2648775;36;20716;-78
2021/08/14 08:50:27;;;;;;;10.63;3.87;;;;;;;22.82;51.87;101971.94;2617413;54;20180;-78
2021/08/14 08:52:52;;;;;;;9.20;3.70;;;;;;;22.82;51.63;101964.13;2618123;54;20169;-77
2021/08/14 08:55:21;;;;;;;10.87;3.70;;;;;;;22.89;52.58;101955.34;2617197;54;20128;-79
2021/08/14 08:57:47;;;;;;;11.50;4.27;;;;;;;22.96;51.87;101955.22;2617357;54;20147;-78
2021/08/14 09:00:15;;;;;;;10.60;3.70;;;;;;;22.96;51.41;101970.91;2617392;54;20145;-78
2021/08/14 09:02:42;;;;;;;9.57;3.83;;;;;;;22.91;51.70;101961.38;2617599;54;20238;-79
2021/08/14 09:05:10;;;;;;;12.07;3.70;;;;;;;23.02;51.28;101960.34;2617264;54;20183;-78
2021/08/14 09:07:37;;;;;;;10.73;4.07;;;;;;;23.09;51.89;101962.03;2617367;54;20171;-78
2021/08/14 09:10:04;;;;;;;10.67;4.03;;;;;;;23.11;50.79;101964.63;2617489;54;20155;-79
2021/08/14 09:12:39;;;;;;;7.17;3.63;;;;;;;23.04;51.22;101961.22;2617246;54;20207;-79
2021/08/14 09:15:06;;;;;;;12.83;3.90;;;;;;;23.15;50.63;101951.47;2617727;54;20186;-78
2021/08/14 09:17:31;;;;;;;12.37;4.27;;;;;;;23.12;51.14;101946.31;2617333;54;20187;-77
2021/08/14 09:20:06;;;;;;;9.53;3.50;;;;;;;23.09;50.60;101954.19;2617826;54;20147;-78
2021/08/14 09:22:32;;;;;;;10.73;4.33;;;;;;;23.11;52.11;101955.00;2618137;54;20691;-77
2021/08/14 09:25:13;;;;;;;8.33;3.87;;;;;;;23.39;50.70;101934.59;2617809;54;20139;-77
2021/08/14 09:28:00;;;;;;;11.20;5.03;;;;;;;23.64;49.81;101931.56;2617962;54;20173;-78
2021/08/14 09:30:52;;;;;;;12.83;5.90;;;;;;;23.86;51.62;101926.81;2618188;54;20162;-78
2021/08/14 09:33:21;;;;;;;8.33;3.63;;;;;;;24.27;50.32;101935.66;2618231;54;20147;-77
2021/08/14 09:35:53;;;;;;;10.67;3.60;;;;;;;24.38;47.78;101938.94;2618042;54;20166;-77
2021/08/14 09:38:18;;;;;;;8.03;3.87;;;;;;;24.26;48.55;101931.31;2617954;54;20170;-78
2021/08/14 09:40:46;;;;;;;9.17;3.87;;;;;;;24.18;48.94;101930.59;2617991;47;20194;-78
2021/08/14 09:43:12;;;;;;;10.63;3.80;;;;;;;24.19;49.94;101931.47;2618113;39;20546;-78
2021/08/14 09:45:56;;;;;;;9.47;3.77;;;;;;;24.07;50.40;101926.47;2616806;52;20172;-76
2021/08/14 09:48:24;;;;;;;12.17;4.60;;;;;;;24.26;49.96;101930.47;2651461;36;20219;-78
2021/08/14 09:50:49;;;;;;;7.43;3.30;;;;;;;24.33;48.73;101937.31;2617957;54;20698;-78
2021/08/14 09:53:17;;;;;;;9.50;4.30;;;;;;;24.48;48.22;101924.78;2617713;54;20155;-78
2021/08/14 09:55:45;;;;;;;11.30;4.20;;;;;;;24.50;48.51;101928.19;2617502;54;20155;-78
2021/08/14 09:58:15;;;;;;;7.93;3.73;;;;;;;24.24;48.83;101930.50;2618018;54;20179;-76
2021/08/14 10:00:41;;;;;;;8.00;3.80;;;;;;;24.07;50.72;101921.25;2616926;54;20143;-77
2021/08/14 10:03:07;;;;;;;6.87;3.60;;;;;;;24.20;50.76;101913.13;2618263;54;20246;-77
2021/08/14 10:05:34;;;;;;;7.50;3.27;;;;;;;24.45;49.51;101916.13;2616836;54;20179;-77
2021/08/14 10:08:03;;;;;;;8.80;3.53;;;;;;;24.87;48.77;101917.84;2617416;54;20143;-79
2021/08/14 10:10:29;;;;;;;9.23;3.50;;;;;;;24.83;47.43;101903.97;2617042;54;20142;-78
2021/08/14 10:12:57;;;;;;;11.50;3.60;;;;;;;24.79;46.63;101912.78;2617629;39;20677;-78
2021/08/14 10:15:22;;;;;;;10.03;4.00;;;;;;;24.77;47.68;101916.34;2617277;54;20255;-75
2021/08/14 10:17:49;;;;;;;6.53;3.40;;;;;;;24.61;48.72;101907.94;2616510;54;20179;-78
2021/08/14 10:20:14;;;;;;;7.73;4.07;;;;;;;24.61;48.39;101907.06;2617246;54;20127;-77
2021/08/14 10:22:40;;;;;;;7.27;3.33;;;;;;;24.54;49.07;101895.81;2618028;39;20884;-76
2021/08/14 10:25:06;;;;;;;9.27;3.77;;;;;;;24.64;48.71;101886.03;2616786;54;20156;-77
2021/08/14 10:27:55;;;;;;;10.20;3.80;;;;;;;24.72;48.29;101892.84;2617860;54;20167;-76
2021/08/14 10:30:40;;;;;;;9.67;3.80;;;;;;;24.87;48.08;101887.25;2617350;54;20162;-77
2021/08/14 10:33:07;;;;;;;7.77;3.73;;;;;;;24.82;49.24;101875.16;2617383;54;20199;-76
2021/08/14 10:35:35;;;;;;;8.30;3.50;;;;;;;25.03;46.56;101877.28;2618040;39;20574;-78
2021/08/14 10:38:00;;;;;;;8.03;3.50;;;;;;;25.20;47.78;101883.88;2617571;54;20258;-77
2021/08/14 10:40:59;;;;;;;7.30;3.33;;;;;;;25.47;47.17;101890.22;2618084;54;20155;-75
2021/08/14 10:43:52;;;;;;;9.70;3.33;;;;;;;25.64;46.25;101888.06;2617999;54;20151;-78
2021/08/14 10:46:45;;;;;;;6.90;3.22;;;;;;;25.91;45.58;101892.56;2618118;54;20155;-79
2021/08/14 10:49:20;;;;;;;5.90;2.95;;;;;;;25.82;44.55;101893.66;2660114;36;20194;-78
2021/08/14 10:51:48;;;;;;;6.13;2.88;;;;;;;25.73;45.49;101886.03;2618670;54;20170;-78
2021/08/14 10:54:29;;;;;;;7.55;3.72;;;;;;;25.63;44.30;101870.56;2619504;31;20624;-79
2021/08/14 10:57:02;;;;;;;7.45;3.15;;;;;;;25.82;44.91;101887.53;2617922;54;20155;-78
2021/08/14 10:59:39;;;;;;;13.60;4.13;;;;;;;25.72;44.83;101876.44;2617984;54;20116;-79
2021/08/14 11:02:10;;;;;;;10.48;3.47;;;;;;;25.72;46.34;101868.56;2618393;54;20162;-77
2021/08/14 11:04:39;;;;;;;7.65;3.63;;;;;;;25.48;45.53;101870.97;2618079;54;20152;-78
2021/08/14 11:07:16;;;;;;;9.43;3.47;;;;;;;25.14;46.25;101875.28;2618191;54;20180;-76
2021/08/14 11:09:42;;;;;;;7.97;3.45;;;;;;;25.04;46.86;101866.75;2617301;47;20164;-77
2021/08/14 11:12:08;;;;;;;9.63;3.67;;;;;;;25.23;45.74;101864.56;2617485;47;20167;-77
2021/08/14 11:14:38;;;;;;;8.48;3.70;;;;;;;25.19;45.97;101865.53;2618691;31;20735;-76
2021/08/14 11:17:04;;;;;;;9.70;3.70;;;;;;;25.21;46.84;101854.13;2618024;54;20178;-77
2021/08/14 11:19:50;;;;;;;6.40;3.10;;;;;;;25.42;46.86;101856.22;2617697;47;20219;-77